メインページ
METAR-TAF:

METAR-TAF

空港 :

オタワ・マクドナルド・カルティエ国際空港

オタワ, オンタリオ州, カナダ

緯度: 45-19N, 経度: 075-40W, 海抜: 116m

現時点の気象観測

当レポートは18分前の11:00(UTC)に作成
西/北西の風 12kt、最大19ktの突風を伴う
気温 -10°C
湿度 72%
気圧 1025 hPa
視程: 9.7km
高度3500ftの曇り
小雪, 靄

METAR: CYOW 141100Z 30012G19KT 6SM -SN BR OVC035 M10/M14 A3028 RMK SC8 SLP265

時間: 06:18 (11:18 UTC)

予報

当レポートは2時間40分前の08:38(UTC)に作成
予報は14日の 09時(UTC)から 15日の 06時(UTC)まで有効
北西の風 10kt
視程: 10km
高度5000ftの千切れ雲あり
14日の 09時(UTC)から 14日の 11時(UTC)まで一時的に
視程: 8.0km
高度1500ftの千切れ雲あり
高度2500ftの曇り
弱いにわか雪
14日の 1100時(UTC)から
西/北西の風 12kt、最大22ktの突風を伴う
視程: 10km
高度3000ftの雲はほとんどない
14日の 22時(UTC)から 14日の 24時(UTC)まで徐々に
西/北西の風 10kt

TAF: CYOW 140838Z 1409/1506 32010KT P6SM BKN050 TEMPO 1409/1411 5SM -SHSN BKN015 OVC025 FM141100 30012G22KT P6SM FEW030 BECMG 1422/1424 29010KT RMK NXT FCST BY 141200Z

4,000以上の空港の気象観測と天気予報(METAR報とTAF報)

利用可能な観測所は地図上に黄色い丸と赤い丸で示す。

丸の上にカーソルを重ねると観測所名を参照できる。

次にクリックすると気象観測と天気予報を参照できる。

マップの切り替え:黒色「×」印の緑ボタンをクリックして拡大、「-」印の緑ボタンをクリックして縮小、緑色の三角印をクリックして隣りの地図に切り替え


METAR-TAF: